createdAt,value
2018-08-30T00:01:03.773Z,96632.94
2018-08-30T00:04:28.310Z,96654.67
2018-08-30T00:06:10.398Z,96667.57
2018-08-30T00:07:47.390Z,96657.44
2018-08-30T00:09:27.642Z,96674.92
2018-08-30T00:11:03.548Z,96670.78
2018-08-30T00:12:42.195Z,96675.77
2018-08-30T00:14:19.062Z,96675.24
2018-08-30T00:15:58.510Z,96683.01
2018-08-30T00:17:37.626Z,96684.83
2018-08-30T00:20:57.632Z,96696.50
2018-08-30T00:22:35.506Z,96704.66
2018-08-30T00:24:10.682Z,96704.43
2018-08-30T00:25:46.290Z,96710.33
2018-08-30T00:27:23.403Z,96714.23
2018-08-30T00:28:58.594Z,96727.58
2018-08-30T00:30:39.719Z,96727.38
2018-08-30T00:32:18.056Z,96728.75
2018-08-30T00:34:04.579Z,96738.13
2018-08-30T00:35:41.550Z,96740.43
2018-08-30T00:37:16.884Z,96739.87
2018-08-30T00:38:53.504Z,96743.58
2018-08-30T00:40:31.871Z,96746.04
2018-08-30T00:42:08.376Z,96750.98
2018-08-30T00:43:43.601Z,96757.85
2018-08-30T00:45:20.289Z,96759.08
2018-08-30T00:46:57.205Z,96754.98
2018-08-30T00:48:37.553Z,96767.35
2018-08-30T00:50:14.540Z,96766.59
2018-08-30T00:51:54.697Z,96766.42
2018-08-30T00:53:33.467Z,96776.67
2018-08-30T00:55:09.887Z,96775.30
2018-08-30T00:56:51.358Z,96773.31
2018-08-30T00:58:33.736Z,96778.81
2018-08-30T01:00:12.922Z,96777.14
2018-08-30T01:01:48.073Z,96784.51
2018-08-30T01:03:31.352Z,96780.23
2018-08-30T01:05:07.641Z,96789.71
2018-08-30T01:06:45.268Z,96783.45
2018-08-30T01:08:24.781Z,96786.15
2018-08-30T01:10:05.883Z,96794.55
2018-08-30T01:11:44.288Z,96790.57
2018-08-30T01:13:20.624Z,96801.13
2018-08-30T01:14:55.772Z,96798.57
2018-08-30T01:16:31.151Z,96807.44
2018-08-30T01:18:10.153Z,96815.84
2018-08-30T01:19:46.162Z,96817.53
2018-08-30T01:21:35.590Z,96813.60
2018-08-30T01:23:12.323Z,96818.19
2018-08-30T01:24:49.001Z,96818.04
2018-08-30T01:26:27.397Z,96826.58
2018-08-30T01:28:05.021Z,96820.32
2018-08-30T01:29:41.614Z,96838.19
2018-08-30T01:31:18.090Z,96819.41
2018-08-30T01:32:53.158Z,96827.34
2018-08-30T01:34:29.246Z,96818.52
2018-08-30T01:36:04.724Z,96824.33
2018-08-30T01:37:40.047Z,96818.23
2018-08-30T01:39:14.937Z,96832.28
2018-08-30T01:40:49.849Z,96827.39
2018-08-30T01:42:25.280Z,96828.30
2018-08-30T01:44:02.049Z,96832.89
2018-08-30T01:45:38.755Z,96836.14
2018-08-30T01:47:13.867Z,96835.99
2018-08-30T01:48:48.994Z,96849.27
2018-08-30T01:50:24.362Z,96837.07
2018-08-30T01:51:59.494Z,96841.95
2018-08-30T01:53:35.873Z,96839.55
2018-08-30T01:55:11.990Z,96842.14
2018-08-30T01:56:47.244Z,96843.36
2018-08-30T01:58:22.459Z,96851.30
2018-08-30T01:59:57.750Z,96847.79
2018-08-30T02:01:33.370Z,96838.63
2018-08-30T02:03:08.272Z,96844.13
2018-08-30T02:04:44.013Z,96844.13
2018-08-30T02:06:19.192Z,96846.42
2018-08-30T02:07:54.253Z,96854.05
2018-08-30T02:09:30.746Z,96851.77
2018-08-30T02:11:06.265Z,96849.93
2018-08-30T02:12:42.164Z,96854.52
2018-08-30T02:14:17.599Z,96851.77
2018-08-30T02:15:53.614Z,96851.33
2018-08-30T02:17:29.259Z,96851.64
2018-08-30T02:19:04.557Z,96852.41
2018-08-30T02:20:39.592Z,96854.70
2018-08-30T02:22:14.890Z,96853.66
2018-08-30T02:23:50.637Z,96854.72
2018-08-30T02:25:26.942Z,96857.44
2018-08-30T02:27:02.166Z,96861.73
2018-08-30T02:28:38.414Z,96851.80
2018-08-30T02:30:15.227Z,96865.25
2018-08-30T02:31:50.689Z,96868.42
2018-08-30T02:33:25.669Z,96869.95
2018-08-30T02:35:00.978Z,96869.83
2018-08-30T02:36:36.555Z,96878.67
2018-08-30T02:38:11.651Z,96878.22
2018-08-30T02:39:47.243Z,96873.48
2018-08-30T02:41:22.276Z,96877.76
2018-08-30T02:42:57.195Z,96880.81
2018-08-30T02:44:32.539Z,96883.25
2018-08-30T02:46:08.529Z,96885.82
2018-08-30T02:47:45.022Z,96887.98
2018-08-30T02:49:20.168Z,96894.08
2018-08-30T02:50:56.276Z,96895.60
2018-08-30T02:52:34.551Z,96887.36
2018-08-30T02:54:09.898Z,96893.77
2018-08-30T02:55:45.410Z,96889.50
2018-08-30T02:57:21.498Z,96893.64
2018-08-30T02:58:56.478Z,96889.80
2018-08-30T03:00:32.095Z,96904.31
2018-08-30T03:02:08.634Z,96901.88
2018-08-30T03:03:53.421Z,96900.02
2018-08-30T03:05:28.673Z,96903.53
2018-08-30T03:07:03.968Z,96906.30
2018-08-30T03:08:39.305Z,96896.08
2018-08-30T03:10:14.431Z,96897.59
2018-08-30T03:11:49.804Z,96902.92
2018-08-30T03:13:25.047Z,96904.45
2018-08-30T03:15:09.931Z,96907.67
2018-08-30T03:16:48.730Z,96910.58
2018-08-30T03:18:23.850Z,96912.53
2018-08-30T03:19:59.389Z,96917.59
2018-08-30T03:21:34.984Z,96914.08
2018-08-30T03:23:10.214Z,96918.20
2018-08-30T03:24:45.452Z,96919.73
2018-08-30T03:26:21.097Z,96913.32
2018-08-30T03:27:56.050Z,96911.00
2018-08-30T03:29:30.990Z,96917.13
2018-08-30T03:31:06.422Z,96915.45
2018-08-30T03:32:41.611Z,96908.28
2018-08-30T03:34:16.972Z,96915.00
2018-08-30T03:35:52.033Z,96916.97
2018-08-30T03:37:27.231Z,96915.45
2018-08-30T03:39:02.212Z,96918.80
2018-08-30T03:40:37.563Z,96915.45
2018-08-30T03:42:12.962Z,96923.08
2018-08-30T03:43:47.931Z,96924.30
2018-08-30T03:45:23.018Z,96927.04
2018-08-30T03:46:58.098Z,96928.11
2018-08-30T03:48:32.993Z,96932.54
2018-08-30T03:50:08.468Z,96936.95
2018-08-30T03:51:43.534Z,96940.62
2018-08-30T03:53:18.552Z,96940.16
2018-08-30T03:54:54.862Z,96935.89
2018-08-30T03:56:29.879Z,96943.21
2018-08-30T03:58:05.621Z,96943.82
2018-08-30T03:59:40.654Z,96940.16
2018-08-30T04:01:16.908Z,96942.90
2018-08-30T04:02:52.021Z,96944.59
2018-08-30T04:04:28.014Z,96950.23
2018-08-30T04:06:03.847Z,96950.21
2018-08-30T04:07:39.184Z,96949.16
2018-08-30T04:09:14.580Z,96947.94
2018-08-30T04:10:51.741Z,96947.17
2018-08-30T04:12:27.034Z,96941.38
2018-08-30T04:14:05.706Z,96948.86
2018-08-30T04:15:41.110Z,96947.64
2018-08-30T04:17:16.222Z,96945.95
2018-08-30T04:18:57.258Z,96945.81
2018-08-30T04:20:32.655Z,96947.03
2018-08-30T04:22:08.339Z,96956.33
2018-08-30T04:23:43.354Z,96953.88
2018-08-30T04:25:19.765Z,96950.06
2018-08-30T04:26:55.065Z,96948.09
2018-08-30T04:28:35.449Z,96950.69
2018-08-30T04:30:10.566Z,96954.65
2018-08-30T04:31:45.730Z,96950.38
2018-08-30T04:33:20.739Z,96954.49
2018-08-30T04:34:57.482Z,96951.28
2018-08-30T04:36:35.698Z,96959.97
2018-08-30T04:38:11.542Z,96962.72
2018-08-30T04:39:46.776Z,96954.33
2018-08-30T04:41:26.563Z,96953.11
2018-08-30T04:43:01.865Z,96958.62
2018-08-30T04:44:37.257Z,96963.50
2018-08-30T04:46:12.248Z,96960.45
2018-08-30T04:47:48.123Z,96964.11
2018-08-30T04:49:23.799Z,96966.24
2018-08-30T04:51:05.098Z,96969.14
2018-08-30T04:52:40.293Z,96969.75
2018-08-30T04:54:15.331Z,96972.95
2018-08-30T04:55:50.654Z,96968.05
2018-08-30T04:57:25.568Z,96974.92
2018-08-30T04:59:00.817Z,96976.92
2018-08-30T05:01:45.859Z,96964.42
2018-08-30T05:03:23.374Z,96979.50
2018-08-30T05:05:05.672Z,96979.97
2018-08-30T05:06:47.575Z,96985.45
2018-08-30T05:08:23.273Z,96988.66
2018-08-30T05:10:07.673Z,96990.17
2018-08-30T05:11:45.307Z,96994.59
2018-08-30T05:13:22.141Z,96992.93
2018-08-30T05:15:04.192Z,97001.48
2018-08-30T05:16:40.558Z,97000.26
2018-08-30T05:18:15.695Z,97007.58
2018-08-30T05:19:52.017Z,97008.95
2018-08-30T05:21:30.775Z,97010.62
2018-08-30T05:23:06.281Z,97013.05
2018-08-30T05:24:46.525Z,97013.52
2018-08-30T05:26:28.547Z,97009.71
2018-08-30T05:28:05.421Z,97011.38
2018-08-30T05:29:41.161Z,97016.27
2018-08-30T05:31:19.053Z,97017.97
2018-08-30T05:32:55.234Z,97016.13
2018-08-30T05:34:31.852Z,97016.13
2018-08-30T05:36:07.850Z,97026.81
2018-08-30T05:37:44.457Z,97021.00
2018-08-30T05:39:22.059Z,97023.14
2018-08-30T05:40:59.024Z,97026.50
2018-08-30T05:42:38.518Z,97035.19
2018-08-30T05:44:15.324Z,97035.81
2018-08-30T05:45:53.603Z,97034.88
2018-08-30T05:47:31.883Z,97040.37
2018-08-30T05:49:07.561Z,97036.87
2018-08-30T05:50:44.294Z,97036.87
2018-08-30T05:52:20.096Z,97035.97
2018-08-30T05:53:56.396Z,97031.53
2018-08-30T05:55:34.065Z,97036.56
2018-08-30T05:57:11.596Z,97041.15
2018-08-30T05:58:47.724Z,97039.02
2018-08-30T06:00:23.618Z,97048.92
2018-08-30T06:01:59.502Z,97046.80
2018-08-30T06:03:35.375Z,97048.94
2018-08-30T06:05:12.031Z,97049.25
2018-08-30T06:06:48.109Z,97055.17
2018-08-30T06:08:25.266Z,97057.64
2018-08-30T06:10:01.408Z,97058.55
2018-08-30T06:11:37.394Z,97051.22
2018-08-30T06:13:13.312Z,97055.03
2018-08-30T06:14:49.563Z,97056.56
2018-08-30T06:16:26.719Z,97055.33
2018-08-30T06:18:03.101Z,97062.67
2018-08-30T06:19:39.801Z,97066.33
2018-08-30T06:21:15.811Z,97061.77
2018-08-30T06:22:51.494Z,97067.25
2018-08-30T06:24:28.471Z,97070.16
2018-08-30T06:26:04.414Z,97059.32
2018-08-30T06:27:40.875Z,97069.86
2018-08-30T06:29:17.276Z,97059.48
2018-08-30T06:30:53.110Z,97071.52
2018-08-30T06:32:29.308Z,97066.63
2018-08-30T06:34:05.910Z,97072.76
2018-08-30T06:35:41.736Z,97071.98
2018-08-30T06:37:19.217Z,97074.42
2018-08-30T06:38:57.444Z,97071.08
2018-08-30T06:40:33.703Z,97078.39
2018-08-30T06:42:09.499Z,97071.82
2018-08-30T06:43:49.066Z,97077.95
2018-08-30T06:45:27.831Z,97072.75
2018-08-30T06:47:07.724Z,97079.48
2018-08-30T06:48:44.560Z,97082.22
2018-08-30T06:50:20.555Z,97086.33
2018-08-30T06:51:56.251Z,97083.59
2018-08-30T06:53:34.358Z,97080.67
2018-08-30T06:55:10.646Z,97078.23
2018-08-30T06:56:46.713Z,97082.05
2018-08-30T06:58:23.021Z,97082.83
2018-08-30T07:00:05.360Z,97077.62
2018-08-30T07:01:41.200Z,97078.11
2018-08-30T07:03:17.623Z,97082.53
2018-08-30T07:04:53.950Z,97088.63
2018-08-30T07:06:29.719Z,97083.30
2018-08-30T07:08:07.784Z,97087.86
2018-08-30T07:09:44.523Z,97088.48
2018-08-30T07:11:20.245Z,97093.97
2018-08-30T07:12:56.529Z,97093.53
2018-08-30T07:14:32.818Z,97091.84
2018-08-30T07:16:08.729Z,97095.04
2018-08-30T07:17:47.318Z,97093.97
2018-08-30T07:19:25.727Z,97101.30
2018-08-30T07:21:02.144Z,97105.88
2018-08-30T07:22:38.017Z,97108.18
2018-08-30T07:24:13.506Z,97106.80
2018-08-30T07:25:51.253Z,97106.64
2018-08-30T07:27:28.261Z,97109.87
2018-08-30T07:29:08.416Z,97112.30
2018-08-30T07:30:47.655Z,97112.28
2018-08-30T07:32:24.209Z,97115.95
2018-08-30T07:34:00.636Z,97120.39
2018-08-30T07:35:36.829Z,97123.90
2018-08-30T07:37:14.015Z,97124.52
2018-08-30T07:38:53.677Z,97122.53
2018-08-30T07:40:30.690Z,97126.84
2018-08-30T07:42:07.357Z,97124.99
2018-08-30T07:43:44.344Z,97129.73
2018-08-30T07:45:21.123Z,97129.56
2018-08-30T07:47:00.731Z,97134.77
2018-08-30T07:48:39.136Z,97125.47
2018-08-30T07:50:15.740Z,97136.45
2018-08-30T07:51:52.019Z,97138.27
2018-08-30T07:53:28.510Z,97141.05
2018-08-30T07:55:04.334Z,97143.00
2018-08-30T07:56:40.205Z,97140.58
2018-08-30T07:58:17.393Z,97144.25
2018-08-30T07:59:53.346Z,97155.23
2018-08-30T08:09:23.325Z,97176.42
2018-08-30T08:10:59.680Z,97178.31
2018-08-30T08:12:37.418Z,97177.55
2018-08-30T08:14:14.136Z,97182.42
2018-08-30T08:15:52.087Z,97185.45
2018-08-30T08:17:28.179Z,97183.14
2018-08-30T08:19:04.265Z,97186.06
2018-08-30T08:20:41.015Z,97183.16
2018-08-30T08:22:21.060Z,97179.23
2018-08-30T08:23:57.981Z,97185.34
2018-08-30T08:25:36.571Z,97185.30
2018-08-30T08:27:13.903Z,97189.76
2018-08-30T08:28:52.600Z,97194.48
2018-08-30T08:30:31.182Z,97192.50
2018-08-30T08:32:08.512Z,97195.57
2018-08-30T08:33:46.399Z,97187.28
2018-08-30T08:35:22.512Z,97186.39
2018-08-30T08:37:00.438Z,97180.23
2018-08-30T08:38:36.539Z,97180.41
2018-08-30T08:40:14.680Z,97188.23
2018-08-30T08:41:50.831Z,97183.98
2018-08-30T08:43:27.247Z,97186.47
2018-08-30T08:45:04.778Z,97192.00
2018-08-30T08:46:41.224Z,97191.23
2018-08-30T08:48:16.991Z,97194.14
2018-08-30T08:49:53.357Z,97194.17
2018-08-30T08:51:29.720Z,97196.32
2018-08-30T08:53:09.620Z,97203.05
2018-08-30T08:55:54.546Z,97206.58
2018-08-30T08:57:29.964Z,97209.94
2018-08-30T08:59:05.976Z,97217.10
2018-08-30T09:00:42.749Z,97208.23
2018-08-30T09:02:19.188Z,97216.03
2018-08-30T09:03:55.517Z,97218.48
2018-08-30T09:05:31.340Z,97222.75
2018-08-30T09:07:08.546Z,97220.92
2018-08-30T09:08:46.350Z,97217.42
2018-08-30T09:10:23.591Z,97213.12
2018-08-30T09:12:00.488Z,97213.54
2018-08-30T09:13:36.268Z,97216.78
2018-08-30T09:15:17.451Z,97220.85
2018-08-30T09:16:54.140Z,97214.09
2018-08-30T09:18:32.788Z,97221.21
2018-08-30T09:20:11.356Z,97223.62
2018-08-30T09:21:50.900Z,97219.66
2018-08-30T09:23:26.960Z,97210.58
2018-08-30T09:25:02.947Z,97217.52
2018-08-30T09:26:39.789Z,97218.54
2018-08-30T09:28:18.504Z,97220.94
2018-08-30T09:29:55.188Z,97215.51
2018-08-30T09:31:33.457Z,97216.72
2018-08-30T09:33:09.995Z,97217.75
2018-08-30T09:34:46.245Z,97220.55
2018-08-30T09:36:23.146Z,97224.66
2018-08-30T09:38:02.486Z,97214.72
2018-08-30T09:39:40.326Z,97218.20
2018-08-30T09:41:17.117Z,97221.77
2018-08-30T09:42:53.107Z,97218.34
2018-08-30T09:44:32.476Z,97212.64
2018-08-30T09:46:18.751Z,97219.45
2018-08-30T09:47:55.793Z,97218.56
2018-08-30T09:49:35.062Z,97221.32
2018-08-30T09:51:13.112Z,97216.05
2018-08-30T09:52:53.287Z,97222.75
2018-08-30T09:54:28.671Z,97213.84
2018-08-30T09:56:05.013Z,97220.86
2018-08-30T09:57:41.426Z,97224.71
2018-08-30T09:59:16.660Z,97232.22
2018-08-30T10:00:58.177Z,97229.14
2018-08-30T10:02:35.987Z,97226.83
2018-08-30T10:04:14.201Z,97233.61
2018-08-30T10:05:49.711Z,97232.36
2018-08-30T10:07:24.976Z,97228.49
2018-08-30T10:09:03.321Z,97230.80
2018-08-30T10:10:39.530Z,97230.06
2018-08-30T10:12:17.316Z,97219.42
2018-08-30T10:13:59.917Z,97233.31
2018-08-30T10:15:35.246Z,97224.06
2018-08-30T10:17:11.184Z,97227.08
2018-08-30T10:18:46.809Z,97223.74
2018-08-30T10:20:22.531Z,97227.02
2018-08-30T10:21:58.696Z,97225.38
2018-08-30T10:23:34.702Z,97232.52
2018-08-30T10:25:09.722Z,97232.75
2018-08-30T10:26:45.297Z,97224.73
2018-08-30T10:28:20.957Z,97229.11
2018-08-30T10:30:00.091Z,97230.72
2018-08-30T10:31:35.613Z,97231.53
2018-08-30T10:33:10.975Z,97234.41
2018-08-30T10:34:49.973Z,97231.02
2018-08-30T10:36:26.684Z,97227.30
2018-08-30T10:38:06.418Z,97233.60
2018-08-30T10:39:44.378Z,97234.36
2018-08-30T10:41:25.862Z,97236.03
2018-08-30T10:43:05.793Z,97236.57
2018-08-30T10:44:44.401Z,97242.48
2018-08-30T10:46:33.507Z,97242.16
2018-08-30T10:48:19.051Z,97243.69
2018-08-30T10:51:47.808Z,97250.20
2018-08-30T10:53:26.434Z,97254.94
2018-08-30T10:55:03.788Z,97254.50
2018-08-30T10:56:40.292Z,97256.02
2018-08-30T10:58:18.811Z,97246.06
2018-08-30T10:59:58.361Z,97250.14
2018-08-30T11:01:34.358Z,97246.33
2018-08-30T11:03:09.560Z,97244.97
2018-08-30T11:04:46.669Z,97249.75
2018-08-30T11:06:26.886Z,97252.57
2018-08-30T11:08:08.278Z,97240.37
2018-08-30T11:09:43.990Z,97236.84
2018-08-30T11:11:29.648Z,97233.25
2018-08-30T11:13:17.270Z,97231.31
2018-08-30T11:14:52.490Z,97232.17
2018-08-30T11:16:28.091Z,97225.23
2018-08-30T11:18:07.055Z,97226.55
2018-08-30T11:19:42.296Z,97221.41
2018-08-30T11:21:19.361Z,97220.16
2018-08-30T11:22:56.224Z,97223.33
2018-08-30T11:24:39.364Z,97228.59
2018-08-30T11:26:18.420Z,97228.59
2018-08-30T11:27:55.069Z,97233.54
2018-08-30T11:29:36.508Z,97232.88
2018-08-30T11:31:11.748Z,97229.19
2018-08-30T11:32:47.077Z,97240.74
2018-08-30T11:34:22.559Z,97242.75
2018-08-30T11:35:57.752Z,97233.81
2018-08-30T11:37:33.304Z,97238.31
2018-08-30T11:39:09.253Z,97246.19
2018-08-30T11:40:44.330Z,97242.70
2018-08-30T11:42:19.487Z,97240.98
2018-08-30T11:43:54.804Z,97241.84
2018-08-30T11:45:30.086Z,97246.76
2018-08-30T11:47:06.966Z,97244.38
2018-08-30T11:48:43.476Z,97245.43
2018-08-30T11:50:20.301Z,97248.84
2018-08-30T11:51:57.035Z,97245.05
2018-08-30T11:53:32.122Z,97245.33
2018-08-30T11:55:08.645Z,97248.98
2018-08-30T11:56:45.368Z,97247.89
2018-08-30T11:58:22.144Z,97241.47
2018-08-30T12:00:00.316Z,97233.47
2018-08-30T12:01:40.261Z,97239.50
2018-08-30T12:03:20.335Z,97233.20
2018-08-30T12:04:58.895Z,97237.16
2018-08-30T12:06:39.532Z,97230.70
2018-08-30T12:08:17.194Z,97239.71
2018-08-30T12:09:55.072Z,97245.70
2018-08-30T12:11:32.196Z,97247.89
2018-08-30T12:13:12.383Z,97245.33
2018-08-30T12:14:50.166Z,97240.86
2018-08-30T12:16:31.731Z,97248.20
2018-08-30T12:18:11.920Z,97253.20
2018-08-30T12:19:51.264Z,97252.22
2018-08-30T12:21:33.425Z,97260.48
2018-08-30T12:23:15.722Z,97255.06
2018-08-30T12:24:56.512Z,97249.77
2018-08-30T12:26:33.954Z,97253.11
2018-08-30T12:28:11.332Z,97252.60
2018-08-30T12:29:49.320Z,97261.38
2018-08-30T12:31:27.702Z,97250.82
2018-08-30T12:34:49.909Z,97256.09
2018-08-30T12:36:28.961Z,97262.31
2018-08-30T12:38:08.081Z,97255.17
2018-08-30T12:39:46.154Z,97255.22
2018-08-30T12:41:31.460Z,97257.19
2018-08-30T12:44:51.743Z,97262.36
2018-08-30T12:46:31.782Z,97248.70
2018-08-30T12:48:15.635Z,97245.34
2018-08-30T12:49:52.824Z,97251.84
2018-08-30T12:51:32.833Z,97258.36
2018-08-30T12:53:08.429Z,97268.42
2018-08-30T12:54:43.779Z,97273.55
2018-08-30T12:56:20.958Z,97277.77
2018-08-30T12:57:58.100Z,97274.05
2018-08-30T12:59:39.787Z,97283.73
2018-08-30T13:01:18.558Z,97277.37
2018-08-30T13:02:54.015Z,97282.63
2018-08-30T13:04:31.486Z,97282.20
2018-08-30T13:06:09.751Z,97288.08
2018-08-30T13:07:47.116Z,97289.32
2018-08-30T13:09:33.348Z,97291.11
2018-08-30T13:11:16.072Z,97294.19
2018-08-30T13:13:04.977Z,97289.95
2018-08-30T13:14:46.825Z,97293.33
2018-08-30T13:16:24.008Z,97290.98
2018-08-30T13:17:59.504Z,97289.36
2018-08-30T13:19:35.154Z,97292.85
2018-08-30T13:21:12.952Z,97291.89
2018-08-30T13:22:49.454Z,97283.88
2018-08-30T13:24:27.077Z,97280.49
2018-08-30T13:26:03.305Z,97283.12
2018-08-30T13:27:40.710Z,97285.38
2018-08-30T13:29:18.830Z,97279.66
2018-08-30T13:31:12.718Z,97286.09
2018-08-30T13:32:51.780Z,97286.47
2018-08-30T13:34:36.474Z,97284.73
2018-08-30T13:36:16.213Z,97278.31
2018-08-30T13:37:54.331Z,97276.33
2018-08-30T13:39:37.857Z,97285.96
2018-08-30T13:41:14.645Z,97284.05
2018-08-30T13:42:51.091Z,97275.30
2018-08-30T13:44:30.504Z,97281.25
2018-08-30T13:46:12.215Z,97287.42
2018-08-30T13:47:56.460Z,97282.38
2018-08-30T13:49:32.436Z,97284.49
2018-08-30T13:51:10.163Z,97283.76
2018-08-30T13:52:48.751Z,97288.65
2018-08-30T13:54:28.607Z,97293.84
2018-08-30T13:56:11.798Z,97304.49
2018-08-30T13:57:52.760Z,97297.39
2018-08-30T13:59:31.066Z,97296.31
2018-08-30T14:01:08.922Z,97303.33
2018-08-30T14:02:53.338Z,97303.00
2018-08-30T14:04:46.530Z,97294.72
2018-08-30T14:06:39.543Z,97298.28
2018-08-30T14:08:30.257Z,97300.96
2018-08-30T14:10:11.227Z,97299.95
2018-08-30T14:11:49.060Z,97300.61
2018-08-30T14:13:29.845Z,97291.80
2018-08-30T14:15:10.101Z,97299.72
2018-08-30T14:16:51.552Z,97295.64
2018-08-30T14:18:28.613Z,97297.22
2018-08-30T14:20:09.088Z,97293.41
2018-08-30T14:21:46.750Z,97302.58
2018-08-30T14:23:24.551Z,97290.03
2018-08-30T14:25:02.659Z,97299.02
2018-08-30T14:26:40.981Z,97292.67
2018-08-30T14:28:17.230Z,97301.74
2018-08-30T14:29:53.866Z,97292.80
2018-08-30T14:31:34.722Z,97305.65
2018-08-30T14:33:16.626Z,97307.00
2018-08-30T14:34:56.591Z,97306.07
2018-08-30T14:36:41.515Z,97307.36
2018-08-30T14:38:20.546Z,97311.81
2018-08-30T14:39:59.787Z,97309.15
2018-08-30T14:41:36.973Z,97305.47
2018-08-30T14:43:17.542Z,97306.02
2018-08-30T14:44:58.465Z,97309.94
2018-08-30T14:46:41.990Z,97309.70
2018-08-30T14:48:21.765Z,97309.71
2018-08-30T14:50:00.108Z,97319.50
2018-08-30T14:52:46.288Z,97312.88
2018-08-30T14:54:27.558Z,97309.50
2018-08-30T14:56:03.689Z,97317.09
2018-08-30T14:57:44.495Z,97312.66
2018-08-30T14:59:25.467Z,97311.05
2018-08-30T15:02:53.185Z,97299.48
2018-08-30T15:04:29.790Z,97299.70
2018-08-30T15:06:09.031Z,97301.19
2018-08-30T15:07:45.661Z,97293.33
2018-08-30T15:09:21.689Z,97293.48
2018-08-30T15:11:01.428Z,97299.12
2018-08-30T15:12:39.780Z,97298.44
2018-08-30T15:14:20.596Z,97305.94
2018-08-30T15:16:01.407Z,97299.25
2018-08-30T15:17:41.645Z,97294.00
2018-08-30T15:19:19.163Z,97303.50
2018-08-30T15:21:01.007Z,97297.19
2018-08-30T15:22:36.400Z,97295.44
2018-08-30T15:24:15.209Z,97302.29
2018-08-30T15:25:52.495Z,97301.54
2018-08-30T15:27:31.326Z,97293.41
2018-08-30T15:29:16.100Z,97296.64
2018-08-30T15:30:55.461Z,97303.34
2018-08-30T15:32:37.462Z,97302.48
2018-08-30T15:34:17.650Z,97303.20
2018-08-30T15:35:56.797Z,97304.58
2018-08-30T15:37:36.400Z,97305.92
2018-08-30T15:39:17.034Z,97305.76
2018-08-30T15:40:58.311Z,97305.77
2018-08-30T15:42:44.746Z,97311.70
2018-08-30T15:44:27.592Z,97312.66
2018-08-30T15:46:07.892Z,97314.33
2018-08-30T15:47:46.860Z,97316.61
2018-08-30T15:49:28.341Z,97316.22
2018-08-30T15:51:06.990Z,97315.30
2018-08-30T15:53:02.356Z,97314.25
2018-08-30T15:56:47.884Z,97310.84
2018-08-30T15:58:25.618Z,97320.58
2018-08-30T16:00:05.480Z,97312.61
2018-08-30T16:01:42.867Z,97317.37
2018-08-30T16:03:23.148Z,97316.94
2018-08-30T16:05:01.835Z,97321.00
2018-08-30T16:07:47.816Z,97316.13
2018-08-30T16:09:24.401Z,97322.91
2018-08-30T16:11:00.264Z,97319.09
2018-08-30T16:12:38.588Z,97315.89
2018-08-30T16:14:18.918Z,97318.47
2018-08-30T16:15:57.926Z,97310.84
2018-08-30T16:17:35.911Z,97317.19
2018-08-30T16:19:14.212Z,97320.33
2018-08-30T16:20:54.699Z,97312.42
2018-08-30T16:22:45.213Z,97312.42
2018-08-30T16:24:22.793Z,97312.18
2018-08-30T16:26:00.739Z,97313.81
2018-08-30T16:27:39.861Z,97306.36
2018-08-30T16:29:16.042Z,97316.89
2018-08-30T16:30:53.551Z,97318.28
2018-08-30T16:32:34.127Z,97319.09
2018-08-30T16:34:13.808Z,97318.29
2018-08-30T16:35:52.964Z,97315.19
2018-08-30T16:37:32.721Z,97322.60
2018-08-30T16:39:14.371Z,97314.44
2018-08-30T16:40:55.348Z,97312.30
2018-08-30T16:42:37.543Z,97315.49
2018-08-30T16:44:15.450Z,97317.31
2018-08-30T16:45:58.459Z,97313.44
2018-08-30T16:47:38.247Z,97324.11
2018-08-30T16:49:23.990Z,97319.28
2018-08-30T16:51:02.356Z,97320.98
2018-08-30T16:52:41.626Z,97319.43
2018-08-30T16:54:21.298Z,97315.02
2018-08-30T16:55:59.595Z,97319.48
2018-08-30T16:57:38.769Z,97322.19
2018-08-30T16:59:20.740Z,97313.44
2018-08-30T17:00:58.342Z,97318.36
2018-08-30T17:02:36.240Z,97318.86
2018-08-30T17:04:16.268Z,97318.66
2018-08-30T17:05:58.494Z,97316.72
2018-08-30T17:11:21.869Z,97312.59
2018-08-30T17:13:03.183Z,97318.96
2018-08-30T17:14:42.729Z,97316.07
2018-08-30T17:16:19.872Z,97316.13
2018-08-30T17:17:58.205Z,97321.13
2018-08-30T17:19:39.295Z,97320.66
2018-08-30T17:21:19.850Z,97324.18
2018-08-30T17:23:03.483Z,97322.36
2018-08-30T17:24:43.601Z,97315.75
2018-08-30T17:26:20.904Z,97318.53
2018-08-30T17:28:00.604Z,97315.34
2018-08-30T17:29:46.528Z,97314.44
2018-08-30T17:31:27.835Z,97320.59
2018-08-30T17:33:10.560Z,97317.26
2018-08-30T17:34:56.287Z,97308.98
2018-08-30T17:36:33.345Z,97315.44
2018-08-30T17:38:15.394Z,97313.59
2018-08-30T17:39:54.363Z,97312.59
2018-08-30T17:41:31.172Z,97315.05
2018-08-30T17:43:10.644Z,97318.16
2018-08-30T17:44:47.390Z,97316.33
2018-08-30T17:46:26.791Z,97318.33
2018-08-30T17:48:04.485Z,97313.28
2018-08-30T17:49:44.744Z,97321.87
2018-08-30T17:51:33.163Z,97325.74
2018-08-30T17:55:12.151Z,97328.71
2018-08-30T17:56:49.899Z,97322.62
2018-08-30T17:58:25.444Z,97325.87
2018-08-30T18:00:04.337Z,97326.65
2018-08-30T18:01:42.656Z,97326.67
2018-08-30T18:03:21.095Z,97328.81
2018-08-30T18:05:01.609Z,97326.52
2018-08-30T18:06:38.591Z,97331.89
2018-08-30T18:08:19.324Z,97330.38
2018-08-30T18:09:57.252Z,97327.94
2018-08-30T18:11:40.333Z,97329.48
2018-08-30T18:13:19.373Z,97330.23
2018-08-30T18:16:39.308Z,97328.08
2018-08-30T18:18:16.851Z,97325.49
2018-08-30T18:19:51.953Z,97323.95
2018-08-30T18:21:28.855Z,97332.64
2018-08-30T18:23:07.447Z,97331.09
2018-08-30T18:24:47.275Z,97329.56
2018-08-30T18:26:23.994Z,97339.30
2018-08-30T18:29:45.621Z,97332.64
2018-08-30T18:31:23.792Z,97340.86
2018-08-30T18:33:06.235Z,97341.27
2018-08-30T18:34:43.388Z,97353.25
2018-08-30T18:36:21.902Z,97349.73
2018-08-30T18:38:03.243Z,97349.41
2018-08-30T18:39:42.995Z,97346.67
2018-08-30T18:41:21.415Z,97356.41
2018-08-30T18:43:00.346Z,97354.99
2018-08-30T18:44:40.699Z,97357.73
2018-08-30T18:46:21.499Z,97362.33
2018-08-30T18:48:01.825Z,97367.98
2018-08-30T18:49:45.041Z,97367.66
2018-08-30T19:17:04.520Z,97381.80
2018-08-30T19:18:52.230Z,97389.33
2018-08-30T19:20:28.547Z,97391.88
2018-08-30T19:22:04.306Z,97388.21
2018-08-30T19:23:40.671Z,97393.72
2018-08-30T19:26:29.446Z,97389.16
2018-08-30T19:28:09.364Z,97386.96
2018-08-30T19:29:53.246Z,97390.63
2018-08-30T19:31:34.379Z,97385.94
2018-08-30T19:33:15.705Z,97382.09
2018-08-30T19:34:55.271Z,97390.54
2018-08-30T19:36:34.480Z,97385.94
2018-08-30T19:38:13.739Z,97385.94
2018-08-30T19:39:51.605Z,97384.56
2018-08-30T19:41:33.084Z,97385.38
2018-08-30T19:43:13.224Z,97387.58
2018-08-30T19:44:52.773Z,97385.55
2018-08-30T19:46:37.820Z,97393.61
2018-08-30T19:48:17.275Z,97391.26
2018-08-30T19:49:56.299Z,97394.31
2018-08-30T19:51:34.741Z,97397.61
2018-08-30T19:53:17.692Z,97396.75
2018-08-30T19:54:55.673Z,97401.45
2018-08-30T19:56:32.379Z,97402.44
2018-08-30T19:58:11.881Z,97400.12
2018-08-30T19:59:56.498Z,97396.39
2018-08-30T20:01:35.803Z,97397.13
2018-08-30T20:03:13.179Z,97401.60
2018-08-30T20:06:36.521Z,97403.93
2018-08-30T20:08:17.965Z,97399.89
2018-08-30T20:09:57.535Z,97404.22
2018-08-30T20:11:36.432Z,97401.53
2018-08-30T20:13:14.052Z,97393.59
2018-08-30T20:14:53.148Z,97401.56